Sandlake, Wisconsin
Current Conditions -  °F | °C
As of 10:55 PM on Thursday 30 Oct 2014 (Local Time) from KOEO Reporting Station
Clear Clear  
Wind Chill: 20°   Ceiling: Unl
Heat Index: 32°   Visibility: 10mi
Dew Point: 12°   Wind: 21mph
Humidity: 43%   Direction: 340°NNW
Pressure: 30.34"   Gusts: 26mph
Location:  45.3599°N, 92.5447°W
Report Text: KOEO 310355Z AUTO 34018G23KT 10SM CLR 00/M11 A3034 RMK AO2 T00021110
Loading
Personal Weather Stations






























Interactive Weather Map
Tropical Storm Tracking
New forecast layout! Learn more

10-Day Weather Forecast

Advertisements
Track Severe Weather on mobile